Time;durP1;ratioP1;P1;durP2;ratioP2;P2;SDS_P1;SDS_P2;PMS_P1;PMS_P2;Temp;Humidity;BMP_temperature;BMP_pressure;BME280_temperature;BME280_humidity;BME280_pressure;Samples;Min_cycle;Max_cycle;Signal;HPM_P1;HPM_P2
2022/06/09 00:00:01;;;;;;;20.13;9.88;;;14.70;99.90;;;;;;4983771;28;20695;-78
2022/06/09 00:02:30;;;;;;;14.98;7.53;;;14.70;99.90;;;;;;4985201;28;20054;-79
2022/06/09 00:04:58;;;;;;;17.20;8.73;;;14.70;99.90;;;;;;4985178;28;20046;-79
2022/06/09 00:07:25;;;;;;;14.60;8.35;;;14.70;99.90;;;;;;4983203;28;20523;-79
2022/06/09 00:09:55;;;;;;;21.80;8.65;;;14.70;99.90;;;;;;4984829;28;20084;-78
2022/06/09 00:12:23;;;;;;;24.73;9.07;;;14.70;99.90;;;;;;4983460;28;20034;-78
2022/06/09 00:14:49;;;;;;;20.17;9.60;;;14.70;99.90;;;;;;4984757;28;20046;-78
2022/06/09 00:17:15;;;;;;;24.27;10.15;;;14.60;99.90;;;;;;4982667;28;20042;-79
2022/06/09 00:19:41;;;;;;;17.10;9.90;;;14.60;99.90;;;;;;4984682;28;20051;-79
2022/06/09 00:22:07;;;;;;;24.83;10.43;;;14.60;99.90;;;;;;4984125;28;20551;-79
2022/06/09 00:24:33;;;;;;;28.02;10.77;;;14.60;99.90;;;;;;4984039;28;20089;-79
2022/06/09 00:26:58;;;;;;;17.90;10.68;;;14.60;99.90;;;;;;4983943;28;20710;-79
2022/06/09 00:29:24;;;;;;;20.60;10.85;;;14.50;99.90;;;;;;4983948;28;20672;-78
2022/06/09 00:31:49;;;;;;;19.77;11.48;;;14.60;99.90;;;;;;4984241;28;20122;-79
2022/06/09 00:34:15;;;;;;;22.15;10.48;;;14.60;99.90;;;;;;4983556;28;20053;-79
2022/06/09 00:36:40;;;;;;;25.90;11.40;;;14.50;99.90;;;;;;4984031;28;20073;-79
2022/06/09 00:39:06;;;;;;;26.35;11.23;;;14.50;99.90;;;;;;4982894;28;20078;-78
2022/06/09 00:41:40;;;;;;;15.07;9.90;;;14.50;99.90;;;;;;4982157;28;20039;-79
2022/06/09 00:44:25;;;;;;;17.17;10.77;;;14.50;99.90;;;;;;4983726;28;20438;-79
2022/06/09 00:46:56;;;;;;;18.52;10.98;;;14.40;99.90;;;;;;4976630;28;20315;-78
2022/06/09 00:49:29;;;;;;;18.05;10.65;;;14.40;99.90;;;;;;4969561;28;20627;-78
2022/06/09 00:51:58;;;;;;;20.70;11.00;;;14.40;99.90;;;;;;4984053;28;20093;-78
2022/06/09 00:54:48;;;;;;;22.85;11.02;;;14.40;99.90;;;;;;4983698;28;20053;-78
2022/06/09 00:57:26;;;;;;;17.60;11.65;;;14.30;99.90;;;;;;4981502;28;20081;-78
2022/06/09 00:59:55;;;;;;;22.25;12.38;;;14.30;99.90;;;;;;4984097;28;20093;-79
2022/06/09 01:02:22;;;;;;;21.05;10.82;;;14.30;99.90;;;;;;4982987;28;20324;-79
2022/06/09 01:04:51;;;;;;;17.85;11.32;;;14.30;99.90;;;;;;4983999;28;20042;-78
2022/06/09 01:07:27;;;;;;;23.38;12.35;;;14.30;99.90;;;;;;4982931;28;20065;-78
2022/06/09 01:09:53;;;;;;;15.82;10.38;;;14.20;99.90;;;;;;4982300;28;20054;-78
2022/06/09 01:17:27;;;;;;;11.27;9.30;;;14.10;99.90;;;;;;4982645;28;19922;-87
2022/06/09 01:20:21;;;;;;;10.95;8.20;;;14.10;99.90;;;;;;4984051;28;20073;-84
2022/06/09 01:22:59;;;;;;;20.17;9.80;;;14.00;99.90;;;;;;4982314;28;20493;-84
2022/06/09 01:25:54;;;;;;;25.13;12.32;;;13.90;99.90;;;;;;4982735;28;20042;-85
2022/06/09 01:28:38;;;;;;;15.52;9.30;;;13.90;99.90;;;;;;4983804;28;20046;-85
2022/06/09 01:31:36;;;;;;;15.55;9.98;;;13.90;99.90;;;;;;4983583;28;20165;-84
2022/06/09 01:34:50;;;;;;;16.48;9.80;;;13.90;99.90;;;;;;4982938;28;20047;-84
2022/06/09 01:37:21;;;;;;;11.85;9.15;;;13.90;99.90;;;;;;4979542;28;20133;-84
2022/06/09 01:39:59;;;;;;;16.60;10.33;;;13.80;99.90;;;;;;4983838;28;20058;-85
2022/06/09 01:42:30;;;;;;;14.98;9.52;;;13.80;99.90;;;;;;4981773;28;20049;-85
2022/06/09 01:45:00;;;;;;;15.63;9.60;;;13.80;99.90;;;;;;4998867;28;20050;-85
2022/06/09 01:47:45;;;;;;;12.02;9.27;;;13.70;99.90;;;;;;4982470;28;20054;-85
2022/06/09 01:50:23;;;;;;;11.68;9.70;;;13.70;99.90;;;;;;4983013;28;20042;-84
2022/06/09 01:52:50;;;;;;;18.38;9.77;;;13.70;99.90;;;;;;4983483;28;20038;-85
2022/06/09 01:55:19;;;;;;;11.43;8.38;;;13.70;99.90;;;;;;4982052;28;20034;-85
2022/06/09 01:57:47;;;;;;;11.35;7.53;;;13.60;99.90;;;;;;4983220;28;20496;-85
2022/06/09 02:00:16;;;;;;;12.82;7.25;;;13.60;99.90;;;;;;4981907;28;20109;-85
2022/06/09 02:02:51;;;;;;;19.60;8.85;;;13.60;99.90;;;;;;4981928;28;20058;-85
2022/06/09 02:05:24;;;;;;;10.38;7.45;;;13.60;99.90;;;;;;4981825;28;20034;-85
2022/06/09 02:07:53;;;;;;;10.20;7.88;;;13.50;99.90;;;;;;4982734;28;20062;-84
2022/06/09 02:10:18;;;;;;;14.20;8.27;;;13.50;99.90;;;;;;4997048;28;20051;-85
2022/06/09 02:12:45;;;;;;;8.68;7.78;;;13.50;99.90;;;;;;4983350;28;20499;-85
2022/06/09 02:15:16;;;;;;;11.95;8.45;;;13.50;99.90;;;;;;4982464;28;20137;-85
2022/06/09 02:17:49;;;;;;;13.83;8.07;;;13.50;99.90;;;;;;4983054;28;20054;-85
2022/06/09 02:20:17;;;;;;;12.52;8.65;;;13.40;99.90;;;;;;4982338;28;20039;-85
2022/06/09 02:22:43;;;;;;;23.48;9.73;;;13.40;99.90;;;;;;4983222;28;20046;-85
2022/06/09 02:25:09;;;;;;;13.73;7.90;;;13.40;99.90;;;;;;4981808;28;20118;-85
2022/06/09 02:27:34;;;;;;;18.25;8.73;;;13.40;99.90;;;;;;4982768;28;20050;-85
2022/06/09 02:30:00;;;;;;;10.57;8.27;;;13.40;99.90;;;;;;4982961;28;20417;-85
2022/06/09 02:32:26;;;;;;;13.82;9.13;;;13.40;99.90;;;;;;4982561;28;20416;-85
2022/06/09 02:34:52;;;;;;;8.93;7.68;;;13.40;99.90;;;;;;4982486;28;20046;-84
2022/06/09 02:37:17;;;;;;;12.10;8.15;;;13.50;99.90;;;;;;4982459;28;20383;-85
2022/06/09 02:39:43;;;;;;;9.68;7.80;;;13.50;99.90;;;;;;4982563;28;20564;-85
2022/06/09 02:42:08;;;;;;;8.98;8.07;;;13.50;99.90;;;;;;4980788;28;20065;-85
2022/06/09 02:44:34;;;;;;;16.33;8.57;;;13.50;99.90;;;;;;4982381;28;20043;-86
2022/06/09 02:47:00;;;;;;;16.70;7.72;;;13.50;99.90;;;;;;4983012;28;20113;-85
2022/06/09 02:49:26;;;;;;;14.15;8.20;;;13.50;99.90;;;;;;4988853;28;20573;-85
2022/06/09 02:51:54;;;;;;;9.68;8.30;;;13.50;99.90;;;;;;4989083;28;20042;-85
2022/06/09 02:54:21;;;;;;;9.52;8.52;;;13.50;99.90;;;;;;4988617;28;20577;-85
2022/06/09 02:56:47;;;;;;;9.20;7.35;;;13.50;99.90;;;;;;4988204;28;20105;-85
2022/06/09 02:59:13;;;;;;;8.60;7.60;;;13.50;99.90;;;;;;4988870;28;20081;-85
2022/06/09 03:01:39;;;;;;;9.77;8.77;;;13.50;99.90;;;;;;4986976;28;20046;-84
2022/06/09 03:04:05;;;;;;;9.32;8.35;;;13.50;99.90;;;;;;4988384;28;20046;-84
2022/06/09 03:06:31;;;;;;;11.98;8.82;;;13.50;99.90;;;;;;4988999;28;20502;-85
2022/06/09 03:08:58;;;;;;;11.30;8.60;;;13.60;99.90;;;;;;4989396;28;20057;-84
2022/06/09 03:11:24;;;;;;;8.93;8.10;;;13.50;99.90;;;;;;4987468;28;20078;-84
2022/06/09 03:13:50;;;;;;;10.07;8.52;;;13.50;99.90;;;;;;4988764;28;20046;-84
2022/06/09 03:16:16;;;;;;;12.32;9.30;;;13.50;99.90;;;;;;4988555;28;20069;-84
2022/06/09 03:18:43;;;;;;;11.93;9.80;;;13.60;99.90;;;;;;4988693;28;20262;-85
2022/06/09 03:21:09;;;;;;;14.35;9.75;;;13.50;99.90;;;;;;4988642;28;20046;-85
2022/06/09 03:23:35;;;;;;;11.02;9.43;;;13.50;99.90;;;;;;4988621;28;20089;-85
2022/06/09 03:26:01;;;;;;;14.25;11.07;;;13.60;99.90;;;;;;4987896;28;20074;-85
2022/06/09 03:28:27;;;;;;;16.45;10.07;;;13.60;99.90;;;;;;4988991;28;20469;-85
2022/06/09 03:30:52;;;;;;;12.63;11.48;;;13.60;99.90;;;;;;5003637;28;20551;-85
2022/06/09 03:33:18;;;;;;;22.23;11.38;;;13.60;99.90;;;;;;4988440;28;20050;-85
2022/06/09 03:35:44;;;;;;;14.75;12.63;;;13.70;99.90;;;;;;4988780;28;20042;-84
2022/06/09 03:38:09;;;;;;;15.65;13.90;;;13.70;99.90;;;;;;4987967;28;20068;-85
2022/06/09 03:40:35;;;;;;;19.02;13.93;;;13.70;99.90;;;;;;4986492;28;20049;-85
2022/06/09 03:43:04;;;;;;;27.27;17.55;;;13.70;99.90;;;;;;5003193;28;20408;-85
2022/06/09 03:45:33;;;;;;;18.23;14.65;;;13.70;99.90;;;;;;4987635;28;20046;-85
2022/06/09 03:47:59;;;;;;;21.88;16.50;;;13.70;99.90;;;;;;4987833;28;20096;-85
2022/06/09 03:50:28;;;;;;;15.93;13.70;;;13.70;99.90;;;;;;4987960;28;20047;-84
2022/06/09 03:52:54;;;;;;;16.17;14.35;;;13.70;99.90;;;;;;4988318;28;20042;-87
2022/06/09 03:55:20;;;;;;;18.08;16.25;;;13.80;99.90;;;;;;5002271;28;20050;-87
2022/06/09 03:57:46;;;;;;;23.98;16.05;;;13.80;99.90;;;;;;4988219;28;20051;-87
2022/06/09 04:00:22;;;;;;;18.13;14.85;;;13.80;99.90;;;;;;4984436;28;20444;-88
2022/06/09 04:02:48;;;;;;;19.73;17.42;;;13.80;99.90;;;;;;4982954;28;20030;-87
2022/06/09 04:05:14;;;;;;;21.60;16.95;;;13.80;99.90;;;;;;4984883;28;20057;-87
2022/06/09 04:07:41;;;;;;;22.95;16.50;;;13.80;99.90;;;;;;4984996;28;20034;-87
2022/06/09 04:10:08;;;;;;;17.15;15.38;;;13.80;99.90;;;;;;4984102;28;20125;-88
2022/06/09 04:12:34;;;;;;;18.83;14.70;;;13.90;99.90;;;;;;4984718;28;20077;-88
2022/06/09 04:15:01;;;;;;;16.77;14.48;;;13.90;99.90;;;;;;4983902;28;20046;-82
2022/06/09 04:17:27;;;;;;;14.52;12.88;;;13.90;99.90;;;;;;4985300;28;20054;-88
2022/06/09 04:19:52;;;;;;;13.75;12.20;;;13.90;99.90;;;;;;4983444;28;20527;-87
2022/06/09 04:22:18;;;;;;;11.68;10.43;;;13.90;99.90;;;;;;4984377;28;20038;-87
2022/06/09 04:24:43;;;;;;;16.50;13.38;;;13.90;99.90;;;;;;4984309;28;20165;-88
2022/06/09 04:27:09;;;;;;;17.15;13.05;;;13.90;99.90;;;;;;4984391;28;20477;-88
2022/06/09 04:29:34;;;;;;;17.27;13.30;;;13.90;99.90;;;;;;4983461;28;20054;-87
2022/06/09 04:32:00;;;;;;;15.05;13.50;;;13.90;99.90;;;;;;4999887;28;20046;-82
2022/06/09 04:34:26;;;;;;;14.02;12.52;;;13.90;99.90;;;;;;4984887;28;20042;-87
2022/06/09 04:36:51;;;;;;;14.88;11.80;;;13.90;99.90;;;;;;4984514;28;20043;-87
2022/06/09 04:39:17;;;;;;;15.55;13.95;;;13.90;99.90;;;;;;4983492;28;20034;-88
2022/06/09 04:41:43;;;;;;;18.40;15.63;;;14.00;99.90;;;;;;4982374;28;20049;-88
2022/06/09 04:44:08;;;;;;;17.70;14.82;;;14.00;99.90;;;;;;4984321;28;20057;-87
2022/06/09 04:46:34;;;;;;;19.05;15.88;;;14.00;99.90;;;;;;4982991;28;20054;-89
2022/06/09 04:49:00;;;;;;;19.50;15.85;;;13.90;99.90;;;;;;4984824;28;20046;-88
2022/06/09 04:51:26;;;;;;;15.35;13.85;;;14.00;99.90;;;;;;4984626;28;20041;-88
2022/06/09 04:53:52;;;;;;;17.77;15.13;;;14.00;99.90;;;;;;4983768;28;20042;-88
2022/06/09 04:56:21;;;;;;;14.55;13.02;;;14.00;99.90;;;;;;4981917;28;20440;-87
2022/06/09 04:58:48;;;;;;;18.65;12.60;;;14.00;99.90;;;;;;4984309;28;20144;-87
2022/06/09 05:01:22;;;;;;;12.52;11.25;;;14.00;99.90;;;;;;4983987;28;20111;-87
2022/06/09 05:03:49;;;;;;;11.68;10.43;;;14.00;99.90;;;;;;4998835;28;20046;-88
2022/06/09 05:06:16;;;;;;;12.90;11.68;;;14.00;99.90;;;;;;4983698;28;20039;-87
2022/06/09 05:08:42;;;;;;;19.92;12.43;;;14.00;99.90;;;;;;4983987;28;20043;-87
2022/06/09 05:11:07;;;;;;;17.52;12.82;;;14.00;99.90;;;;;;4982102;28;20053;-87
2022/06/09 05:13:34;;;;;;;21.15;14.13;;;14.10;99.90;;;;;;4983914;28;20134;-88
2022/06/09 05:15:59;;;;;;;16.73;13.70;;;14.10;99.90;;;;;;4983046;28;20054;-87
2022/06/09 05:18:28;;;;;;;15.43;13.85;;;14.10;99.90;;;;;;4981828;28;20470;-88
2022/06/09 05:20:56;;;;;;;17.92;13.60;;;14.20;99.90;;;;;;4984094;28;20039;-87
2022/06/09 05:23:22;;;;;;;19.75;15.73;;;14.20;99.90;;;;;;4982948;28;20046;-87
2022/06/09 05:25:49;;;;;;;16.55;13.10;;;14.20;99.90;;;;;;4982700;28;20482;-87
2022/06/09 05:28:17;;;;;;;12.68;11.35;;;14.30;99.90;;;;;;4983643;28;20057;-88
2022/06/09 05:30:43;;;;;;;16.17;14.27;;;14.30;99.90;;;;;;4983517;28;20093;-87
2022/06/09 05:33:08;;;;;;;16.73;14.43;;;14.30;99.90;;;;;;4981912;28;20046;-87
2022/06/09 05:35:34;;;;;;;14.57;11.65;;;14.40;99.90;;;;;;4983671;28;20540;-87
2022/06/09 05:46:16;;;;;;;14.00;11.38;;;14.50;99.90;;;;;;4982931;28;20054;-85
2022/06/09 05:48:43;;;;;;;16.92;11.13;;;14.50;99.90;;;;;;4980926;28;20050;-87
2022/06/09 05:51:09;;;;;;;9.68;8.68;;;14.50;99.90;;;;;;4981679;28;20855;-86
2022/06/09 05:53:36;;;;;;;11.55;10.02;;;14.50;99.90;;;;;;4983136;28;20038;-87
2022/06/09 05:56:05;;;;;;;17.77;10.82;;;14.50;99.90;;;;;;4981637;28;20045;-86
2022/06/09 05:58:31;;;;;;;11.45;8.95;;;14.50;99.90;;;;;;4997872;28;20034;-83
2022/06/09 06:00:57;;;;;;;14.25;10.52;;;14.50;99.90;;;;;;4983519;28;20053;-87
2022/06/09 06:03:22;;;;;;;17.00;9.80;;;14.60;99.90;;;;;;4982668;28;20519;-85
2022/06/09 06:08:32;;;;;;;9.35;7.72;;;14.60;99.90;;;;;;5002940;28;20046;-87
2022/06/09 06:10:58;;;;;;;12.07;7.47;;;14.60;99.90;;;;;;4982507;28;20488;-87
2022/06/09 06:13:24;;;;;;;11.32;7.72;;;14.60;99.90;;;;;;4982049;28;20045;-87
2022/06/09 06:15:51;;;;;;;12.60;8.73;;;14.60;99.90;;;;;;4982620;28;20054;-87
2022/06/09 06:18:16;;;;;;;13.80;8.45;;;14.60;99.90;;;;;;4996395;28;20046;-87
2022/06/09 06:20:42;;;;;;;8.13;5.95;;;14.60;99.90;;;;;;4982241;28;20038;-87
2022/06/09 06:23:08;;;;;;;11.13;6.45;;;14.70;99.90;;;;;;4981434;28;20046;-87
2022/06/09 06:25:34;;;;;;;6.20;5.13;;;14.70;99.90;;;;;;4979795;28;20437;-86
2022/06/09 06:27:59;;;;;;;7.95;5.00;;;14.80;99.90;;;;;;4982076;28;20049;-90
2022/06/09 06:30:25;;;;;;;12.35;6.07;;;14.80;99.90;;;;;;4981782;28;20046;-89
2022/06/09 06:32:51;;;;;;;7.32;4.57;;;14.80;99.90;;;;;;4981832;28;20148;-89
2022/06/09 06:35:17;;;;;;;4.78;3.08;;;14.80;99.90;;;;;;4982043;28;20121;-89
2022/06/09 06:37:43;;;;;;;6.43;4.18;;;14.90;99.90;;;;;;4982406;28;20122;-89
2022/06/09 06:40:14;;;;;;;5.40;4.13;;;14.90;99.90;;;;;;4980977;28;20125;-89
2022/06/09 06:42:40;;;;;;;5.65;4.35;;;14.90;99.90;;;;;;4980995;28;20054;-89
2022/06/09 06:45:07;;;;;;;4.90;3.70;;;14.90;99.90;;;;;;4982268;28;20466;-89
2022/06/09 06:47:32;;;;;;;8.05;3.13;;;15.00;99.90;;;;;;4982302;28;20050;-89
2022/06/09 06:49:58;;;;;;;4.88;2.58;;;15.00;99.90;;;;;;4982463;28;20134;-89
2022/06/09 06:52:24;;;;;;;3.92;2.22;;;15.00;99.90;;;;;;4980710;28;20779;-89
2022/06/09 06:54:50;;;;;;;2.42;2.17;;;15.00;99.90;;;;;;4980345;28;20061;-88
2022/06/09 06:57:15;;;;;;;3.30;2.25;;;15.00;99.90;;;;;;4979524;28;20125;-89
2022/06/09 06:59:41;;;;;;;2.85;1.80;;;15.00;99.90;;;;;;4996314;28;20101;-88
2022/06/09 07:02:11;;;;;;;3.25;2.15;;;15.00;99.90;;;;;;4980836;28;20046;-89
2022/06/09 07:04:37;;;;;;;2.00;1.58;;;15.10;99.90;;;;;;4963916;28;20050;-88
2022/06/09 07:07:03;;;;;;;7.85;2.38;;;15.10;99.90;;;;;;4980653;28;20177;-88
2022/06/09 07:09:29;;;;;;;2.40;1.40;;;15.10;99.90;;;;;;4992081;28;20049;-88
2022/06/09 07:11:54;;;;;;;3.05;2.10;;;15.10;99.90;;;;;;4981141;28;20034;-88
2022/06/09 07:14:20;;;;;;;4.65;2.45;;;15.10;99.90;;;;;;4980867;28;20765;-89
2022/06/09 07:16:46;;;;;;;2.38;1.30;;;15.20;99.90;;;;;;4981881;28;20065;-89
2022/06/09 07:19:12;;;;;;;3.33;2.40;;;15.20;99.90;;;;;;4979994;28;20121;-89
2022/06/09 07:21:38;;;;;;;3.25;1.63;;;15.20;99.90;;;;;;4979305;28;20579;-89
2022/06/09 07:24:04;;;;;;;1.65;1.55;;;15.10;99.90;;;;;;4979928;28;20090;-88
2022/06/09 07:26:30;;;;;;;2.30;1.60;;;15.20;99.90;;;;;;4978344;28;20109;-88
2022/06/09 07:28:55;;;;;;;3.33;1.98;;;15.20;99.90;;;;;;4981109;28;20042;-88
2022/06/09 07:31:21;;;;;;;5.82;1.60;;;15.20;99.90;;;;;;4977592;28;20057;-87
2022/06/09 07:33:47;;;;;;;3.28;1.83;;;15.20;99.90;;;;;;4982551;28;20116;-87
2022/06/09 07:36:16;;;;;;;3.95;2.17;;;15.20;99.90;;;;;;4974260;28;20129;-87
2022/06/09 07:38:42;;;;;;;2.08;1.77;;;15.20;99.90;;;;;;4976589;28;20108;-85
2022/06/09 07:41:09;;;;;;;8.30;2.50;;;15.30;99.90;;;;;;4972222;28;20043;-86
2022/06/09 07:43:34;;;;;;;3.65;1.00;;;15.30;99.90;;;;;;4975822;28;20121;-85
2022/06/09 07:46:00;;;;;;;4.28;1.45;;;15.30;99.90;;;;;;4969649;28;20626;-83
2022/06/09 07:48:26;;;;;;;4.28;1.92;;;15.30;99.90;;;;;;4976436;28;20096;-87
2022/06/09 07:50:53;;;;;;;2.90;1.75;;;15.30;99.90;;;;;;4984223;28;20042;-86
2022/06/09 07:53:20;;;;;;;1.85;1.67;;;15.30;99.90;;;;;;4982995;28;20042;-85
2022/06/09 07:55:47;;;;;;;3.80;1.98;;;15.40;99.90;;;;;;4981802;28;20093;-86
2022/06/09 07:58:14;;;;;;;3.72;1.77;;;15.40;99.90;;;;;;4979492;28;20061;-86
2022/06/09 08:00:40;;;;;;;11.43;2.60;;;15.40;99.90;;;;;;4983621;28;20050;-87
2022/06/09 08:03:06;;;;;;;2.75;2.42;;;15.40;99.90;;;;;;4983735;28;20039;-86
2022/06/09 08:05:35;;;;;;;2.45;1.58;;;15.50;99.90;;;;;;4983447;28;20121;-88
2022/06/09 08:08:01;;;;;;;4.85;1.95;;;15.50;99.90;;;;;;4982856;28;20197;-86
2022/06/09 08:10:29;;;;;;;5.07;2.15;;;15.50;99.90;;;;;;4984108;28;20477;-87
2022/06/09 08:12:58;;;;;;;4.53;2.35;;;15.60;99.90;;;;;;4984790;28;20042;-84
2022/06/09 08:15:25;;;;;;;3.20;2.20;;;15.60;99.90;;;;;;4998489;28;20053;-89
2022/06/09 08:17:52;;;;;;;3.90;1.90;;;15.60;99.90;;;;;;4966814;28;20058;-86
2022/06/09 08:20:18;;;;;;;5.35;1.83;;;15.60;99.90;;;;;;4982974;28;20484;-88
2022/06/09 08:22:44;;;;;;;3.08;1.55;;;15.60;99.90;;;;;;4980440;28;20088;-87
2022/06/09 08:25:14;;;;;;;4.45;1.48;;;15.60;99.90;;;;;;4982571;28;20074;-92
2022/06/09 08:27:41;;;;;;;3.78;1.70;;;15.60;99.90;;;;;;4981566;28;20058;-87
2022/06/09 08:30:13;;;;;;;1.75;1.65;;;15.60;99.90;;;;;;4981860;28;20088;-89
2022/06/09 08:32:40;;;;;;;4.20;1.20;;;15.60;99.90;;;;;;4982954;28;20047;-87
2022/06/09 08:35:10;;;;;;;1.63;1.50;;;15.60;99.90;;;;;;4982877;28;20050;-86
2022/06/09 08:37:37;;;;;;;4.90;1.25;;;15.60;99.90;;;;;;4983138;28;20038;-86
2022/06/09 08:40:05;;;;;;;1.15;1.05;;;15.60;99.90;;;;;;4981658;28;20115;-84
2022/06/09 08:42:58;;;;;;;1.63;1.30;;;15.60;99.90;;;;;;4983827;28;20492;-85
2022/06/09 08:45:31;;;;;;;3.03;1.65;;;15.70;99.90;;;;;;4983222;28;20121;-85
2022/06/09 08:47:59;;;;;;;3.50;2.08;;;15.70;99.90;;;;;;4978916;28;20181;-85
2022/06/09 08:50:39;;;;;;;3.00;1.25;;;15.70;99.90;;;;;;4981275;28;20068;-86
2022/06/09 08:53:25;;;;;;;2.55;1.02;;;15.80;99.90;;;;;;4982436;28;20042;-85
2022/06/09 08:56:02;;;;;;;3.05;1.73;;;15.80;99.90;;;;;;4982876;28;20065;-85
2022/06/09 08:58:39;;;;;;;1.67;1.40;;;15.80;99.90;;;;;;4982881;28;20096;-86
2022/06/09 09:01:22;;;;;;;4.05;2.40;;;15.90;99.90;;;;;;4981622;28;20114;-87
2022/06/09 09:03:59;;;;;;;3.65;1.88;;;15.90;99.90;;;;;;4981747;28;20053;-85
2022/06/09 09:06:42;;;;;;;1.42;0.95;;;15.90;99.90;;;;;;4967710;28;20042;-86
2022/06/09 09:09:26;;;;;;;3.67;1.92;;;16.00;99.90;;;;;;4982009;28;20471;-86
2022/06/09 09:12:22;;;;;;;6.10;1.75;;;16.10;99.90;;;;;;4975969;28;20038;-86
2022/06/09 09:15:02;;;;;;;7.78;1.95;;;16.10;99.90;;;;;;4992074;28;20358;-85
2022/06/09 09:17:48;;;;;;;2.03;1.52;;;16.10;99.90;;;;;;4976658;28;20058;-85
2022/06/09 09:20:24;;;;;;;2.80;1.25;;;16.20;99.90;;;;;;4981641;28;20050;-86
2022/06/09 09:23:11;;;;;;;4.57;1.48;;;16.10;99.90;;;;;;4982675;28;20132;-84
2022/06/09 09:25:57;;;;;;;8.52;1.33;;;16.10;99.90;;;;;;4997031;28;20704;-84
2022/06/09 09:28:31;;;;;;;7.35;0.77;;;16.20;99.90;;;;;;4981327;28;20133;-83
2022/06/09 09:31:36;;;;;;;2.33;1.65;;;16.20;99.90;;;;;;4968051;28;20122;-84
2022/06/09 09:34:04;;;;;;;3.70;1.77;;;16.20;99.90;;;;;;4978830;28;20038;-83
2022/06/09 09:36:37;;;;;;;3.28;1.17;;;16.30;99.90;;;;;;4983002;28;20050;-82
2022/06/09 09:39:08;;;;;;;3.00;1.00;;;16.30;99.90;;;;;;4981004;28;20049;-84
2022/06/09 09:41:36;;;;;;;0.98;0.85;;;16.30;99.90;;;;;;4978215;28;20042;-85
2022/06/09 09:44:15;;;;;;;6.93;1.63;;;16.30;99.90;;;;;;4975864;28;20038;-86
2022/06/09 09:46:42;;;;;;;3.50;1.70;;;16.30;99.90;;;;;;4981372;28;20075;-87
2022/06/09 09:49:22;;;;;;;3.30;1.90;;;16.30;99.90;;;;;;4990534;28;20038;-86
2022/06/09 09:51:49;;;;;;;3.35;1.13;;;16.30;99.90;;;;;;4979224;28;20034;-86
2022/06/09 09:54:31;;;;;;;3.17;1.70;;;16.40;99.90;;;;;;4979849;28;20120;-85
2022/06/09 09:57:13;;;;;;;6.30;1.70;;;16.40;99.90;;;;;;4980619;28;20096;-88
2022/06/09 09:59:45;;;;;;;1.27;1.00;;;16.40;99.90;;;;;;4981642;28;20065;-87
2022/06/09 10:08:41;;;;;;;4.63;1.27;;;16.40;99.90;;;;;;4981838;28;20046;-88
2022/06/09 10:14:24;;;;;;;3.15;1.30;;;16.50;99.90;;;;;;4987975;28;20050;-86
2022/06/09 10:16:54;;;;;;;1.60;1.50;;;16.60;99.90;;;;;;4997145;28;20058;-86
2022/06/09 10:19:23;;;;;;;11.90;1.70;;;16.60;99.90;;;;;;4981800;28;20058;-88
2022/06/09 10:22:01;;;;;;;2.13;1.13;;;16.60;99.90;;;;;;4981166;28;20100;-89
2022/06/09 10:24:40;;;;;;;0.95;0.80;;;16.60;99.90;;;;;;4981796;28;20103;-90
2022/06/09 10:27:08;;;;;;;4.50;0.60;;;16.60;99.90;;;;;;4997032;28;20061;-90
2022/06/09 10:30:01;;;;;;;3.05;1.02;;;16.60;99.90;;;;;;4982009;28;20054;-91
2022/06/09 10:32:35;;;;;;;6.63;1.35;;;16.60;99.90;;;;;;4982275;28;20499;-88
2022/06/09 10:35:23;;;;;;;3.13;1.13;;;16.60;99.90;;;;;;4982081;28;20047;-88
2022/06/09 10:37:58;;;;;;;2.05;1.17;;;16.70;99.90;;;;;;4997070;28;20050;-84
2022/06/09 10:40:54;;;;;;;4.80;1.10;;;16.70;99.90;;;;;;4980985;28;20046;-84
2022/06/09 10:43:45;;;;;;;1.45;1.35;;;16.70;99.90;;;;;;4957916;28;20133;-83
2022/06/09 10:46:28;;;;;;;2.90;2.00;;;16.70;99.90;;;;;;4979955;28;20124;-83
2022/06/09 10:57:58;;;;;;;6.38;1.10;;;16.60;99.90;;;;;;4980353;28;20043;-84
2022/06/09 11:00:28;;;;;;;2.38;1.40;;;16.60;99.90;;;;;;4996539;28;20054;-83
2022/06/09 11:02:58;;;;;;;2.45;1.52;;;16.50;99.90;;;;;;4980709;28;20049;-84
2022/06/09 11:05:46;;;;;;;1.90;0.90;;;16.50;99.90;;;;;;4978513;28;20027;-82
2022/06/09 11:08:23;;;;;;;5.20;1.08;;;16.50;99.90;;;;;;4996494;28;20130;-83
2022/06/09 11:11:02;;;;;;;2.67;1.95;;;16.60;99.90;;;;;;4967720;28;20043;-83
2022/06/09 11:13:37;;;;;;;2.53;1.17;;;16.60;99.90;;;;;;4972879;28;20056;-82
2022/06/09 11:16:54;;;;;;;1.40;1.27;;;16.60;99.90;;;;;;4985326;28;20089;-84
2022/06/09 11:19:51;;;;;;;3.40;2.20;;;16.70;99.90;;;;;;4943059;29;20051;-83
2022/06/09 11:22:27;;;;;;;3.08;1.65;;;16.70;99.90;;;;;;4927473;29;20051;-83
2022/06/09 11:25:30;;;;;;;1.52;1.42;;;16.80;99.90;;;;;;4973908;28;20547;-84
2022/06/09 11:28:26;;;;;;;6.35;1.98;;;16.80;99.90;;;;;;4985561;28;20058;-82
2022/06/09 11:31:08;;;;;;;1.23;1.13;;;16.80;99.90;;;;;;4984279;28;20548;-83
2022/06/09 11:34:11;;;;;;;2.95;0.95;;;16.80;99.90;;;;;;4985565;28;20030;-84
2022/06/09 11:36:42;;;;;;;1.65;0.88;;;16.80;99.90;;;;;;4984941;28;20732;-83
2022/06/09 11:39:52;;;;;;;3.45;1.00;;;16.70;99.90;;;;;;4983623;28;20501;-83
2022/06/09 11:42:27;;;;;;;1.92;1.45;;;16.80;99.90;;;;;;4985044;28;20053;-83
2022/06/09 11:44:55;;;;;;;2.97;1.95;;;16.80;99.90;;;;;;4984331;28;20049;-83
2022/06/09 11:47:27;;;;;;;1.58;1.48;;;16.80;99.90;;;;;;4999637;28;20137;-80
2022/06/09 11:49:57;;;;;;;2.03;1.90;;;16.90;99.90;;;;;;4966622;28;20051;-81
2022/06/09 11:52:30;;;;;;;5.38;1.88;;;16.90;99.90;;;;;;4983926;28;20053;-81
2022/06/09 11:55:00;;;;;;;1.55;0.93;;;17.00;99.90;;;;;;4983295;28;20034;-81
2022/06/09 11:57:48;;;;;;;0.77;0.68;;;17.00;99.90;;;;;;4985390;28;20082;-82
2022/06/09 12:00:21;;;;;;;2.28;1.67;;;17.10;99.90;;;;;;4984310;28;20058;-81
2022/06/09 12:03:17;;;;;;;2.13;1.15;;;17.10;99.90;;;;;;4984112;28;20062;-82
2022/06/09 12:06:18;;;;;;;5.80;1.48;;;17.20;99.90;;;;;;4999705;28;20042;-81
2022/06/09 12:09:33;;;;;;;1.45;1.35;;;17.20;99.90;;;;;;4979396;28;20133;-83
2022/06/09 12:12:01;;;;;;;1.65;1.35;;;17.30;99.90;;;;;;4967990;28;20058;-91
2022/06/09 12:14:32;;;;;;;1.63;1.38;;;17.30;99.90;;;;;;4982492;28;20080;-89
2022/06/09 12:17:16;;;;;;;2.45;1.27;;;17.20;99.90;;;;;;4985415;28;20130;-90
2022/06/09 12:19:57;;;;;;;2.20;1.38;;;17.20;99.90;;;;;;4979098;28;20132;-91
2022/06/09 12:22:45;;;;;;;1.95;1.20;;;17.20;99.90;;;;;;4981060;28;20053;-90
2022/06/09 12:25:10;;;;;;;2.08;1.58;;;17.20;99.90;;;;;;4978754;28;20092;-83
2022/06/09 12:27:42;;;;;;;3.58;1.83;;;17.20;99.90;;;;;;4983483;28;20451;-87
2022/06/09 12:30:25;;;;;;;7.35;1.38;;;17.30;99.90;;;;;;4982657;28;20038;-85
2022/06/09 12:33:12;;;;;;;2.92;1.48;;;17.20;99.90;;;;;;4984137;28;20100;-86
2022/06/09 12:35:50;;;;;;;1.17;1.15;;;17.30;99.90;;;;;;4963349;28;20047;-86
2022/06/09 12:38:42;;;;;;;1.98;1.05;;;17.30;99.90;;;;;;4966789;28;20053;-85
2022/06/09 12:41:31;;;;;;;1.40;1.08;;;17.20;99.90;;;;;;4966746;28;20041;-86
2022/06/09 12:44:19;;;;;;;2.88;1.10;;;17.30;99.90;;;;;;4973156;28;20054;-86
2022/06/09 12:47:15;;;;;;;2.20;0.95;;;17.30;99.90;;;;;;4999538;28;20130;-86
2022/06/09 12:49:42;;;;;;;1.65;1.40;;;17.30;99.90;;;;;;4976655;28;20062;-86
2022/06/09 12:52:58;;;;;;;3.05;2.17;;;17.30;99.90;;;;;;4982905;28;20077;-85
2022/06/09 12:55:30;;;;;;;1.25;1.05;;;17.30;99.90;;;;;;4925442;29;20059;-86
2022/06/09 12:57:57;;;;;;;1.75;1.17;;;17.40;99.90;;;;;;4942802;28;20055;-86
2022/06/09 13:00:33;;;;;;;1.33;1.17;;;17.40;99.90;;;;;;4963267;28;20054;-85
2022/06/09 13:02:59;;;;;;;4.63;1.50;;;17.50;99.90;;;;;;4983698;28;20049;-86
2022/06/09 13:05:31;;;;;;;2.22;0.63;;;17.50;99.90;;;;;;4983904;28;20074;-85
2022/06/09 13:08:11;;;;;;;2.35;0.95;;;17.50;99.90;;;;;;4983778;28;20899;-84
2022/06/09 13:10:40;;;;;;;1.20;0.90;;;17.50;99.90;;;;;;4997934;28;20042;-85
2022/06/09 13:13:07;;;;;;;2.45;1.08;;;17.50;99.90;;;;;;4982823;28;20046;-85
2022/06/09 13:15:40;;;;;;;1.08;0.95;;;17.50;99.90;;;;;;4997474;28;20077;-87
2022/06/09 13:18:15;;;;;;;3.00;1.35;;;17.50;99.90;;;;;;4982185;28;20101;-85
2022/06/09 13:20:59;;;;;;;1.02;0.95;;;17.50;99.90;;;;;;4981699;28;20552;-84
2022/06/09 13:23:28;;;;;;;0.85;0.85;;;17.60;99.90;;;;;;4979208;28;20066;-84
2022/06/09 13:25:53;;;;;;;1.08;0.98;;;17.60;99.90;;;;;;4982160;28;20042;-84
2022/06/09 13:28:59;;;;;;;1.80;1.40;;;17.60;99.90;;;;;;4981887;28;20524;-84
2022/06/09 13:31:30;;;;;;;1.10;1.00;;;17.60;99.90;;;;;;4944218;28;20070;-94
2022/06/09 13:34:01;;;;;;;2.13;1.33;;;17.60;99.90;;;;;;4946641;28;20628;-93
2022/06/09 13:36:40;;;;;;;3.03;1.10;;;17.70;99.90;;;;;;4965321;28;20493;-93
2022/06/09 13:39:36;;;;;;;1.20;1.02;;;17.70;99.90;;;;;;4983184;28;20049;-94